Time;durP1;ratioP1;P1;durP2;ratioP2;P2;SDS_P1;SDS_P2;PMS_P1;PMS_P2;Temp;Humidity;BMP_temperature;BMP_pressure;BME280_temperature;BME280_humidity;BME280_pressure;Samples;Min_cycle;Max_cycle;Signal;HPM_P1;HPM_P2
2023/01/26 00:00:56;;;;;;;;;;;16.70;47.70;;;;;;10169192;28;1959;-75
2023/01/26 00:05:51;;;;;;;;;;;16.70;47.70;;;;;;10169424;28;900;-75
2023/01/26 00:10:49;;;;;;;;;;;16.70;47.70;;;;;;10168785;28;1047;-75
2023/01/26 00:15:44;;;;;;;;;;;16.70;47.70;;;;;;10168656;28;863;-75
2023/01/26 00:20:40;;;;;;;;;;;16.70;47.80;;;;;;10168931;28;1902;-74
2023/01/26 00:25:35;;;;;;;;;;;16.70;47.80;;;;;;10169755;28;779;-75
2023/01/26 00:30:31;;;;;;;;;;;16.70;47.80;;;;;;10169654;28;851;-75
2023/01/26 00:35:26;;;;;;;;;;;16.70;47.70;;;;;;10169194;28;901;-75
2023/01/26 00:40:21;;;;;;;;;;;16.70;47.80;;;;;;10168051;28;1976;-75
2023/01/26 00:45:17;;;;;;;;;;;16.70;47.70;;;;;;10167843;28;888;-75
2023/01/26 00:50:12;;;;;;;;;;;16.70;47.80;;;;;;10167764;28;899;-75
2023/01/26 00:55:07;;;;;;;;;;;16.60;47.70;;;;;;10168086;28;856;-75
2023/01/26 01:00:03;;;;;;;;;;;16.60;47.70;;;;;;10167877;28;1930;-75
2023/01/26 01:04:58;;;;;;;;;;;16.70;47.70;;;;;;10167122;28;1084;-75
2023/01/26 01:09:54;;;;;;;;;;;16.70;47.70;;;;;;10166990;28;1035;-75
2023/01/26 01:14:49;;;;;;;;;;;16.60;47.70;;;;;;10166832;28;852;-75
2023/01/26 01:19:44;;;;;;;;;;;16.70;47.80;;;;;;10166604;28;772;-75
2023/01/26 01:24:40;;;;;;;;;;;16.70;47.60;;;;;;10167165;28;1899;-75
2023/01/26 01:29:35;;;;;;;;;;;16.60;47.60;;;;;;10165671;28;790;-75
2023/01/26 01:34:30;;;;;;;;;;;16.70;47.60;;;;;;10165281;28;871;-75
2023/01/26 01:39:26;;;;;;;;;;;16.70;47.70;;;;;;10166245;28;1258;-75
2023/01/26 01:44:21;;;;;;;;;;;16.70;47.70;;;;;;10166196;28;1915;-75
2023/01/26 01:49:16;;;;;;;;;;;16.70;47.60;;;;;;10166272;28;945;-75
2023/01/26 01:54:12;;;;;;;;;;;16.70;47.60;;;;;;10166086;28;853;-75
2023/01/26 01:59:07;;;;;;;;;;;16.70;47.60;;;;;;10166402;28;877;-75
2023/01/26 02:04:02;;;;;;;;;;;16.70;47.60;;;;;;10164927;28;1898;-75
2023/01/26 02:08:58;;;;;;;;;;;16.70;47.60;;;;;;10164295;28;814;-75
2023/01/26 02:13:53;;;;;;;;;;;16.60;47.60;;;;;;10165010;28;826;-75
2023/01/26 02:18:49;;;;;;;;;;;16.60;47.70;;;;;;10163973;28;977;-75
2023/01/26 02:23:44;;;;;;;;;;;16.60;47.60;;;;;;10164336;28;1963;-75
2023/01/26 02:28:39;;;;;;;;;;;16.60;47.70;;;;;;10164462;28;819;-75
2023/01/26 02:33:35;;;;;;;;;;;16.60;47.60;;;;;;10164714;28;867;-75
2023/01/26 02:38:30;;;;;;;;;;;16.60;47.60;;;;;;10164693;28;1343;-75
2023/01/26 02:43:25;;;;;;;;;;;16.60;47.60;;;;;;10167216;28;1983;-75
2023/01/26 02:53:35;;;;;;;;;;;16.60;47.60;;;;;;10177237;28;656;-75
2023/01/26 02:58:30;;;;;;;;;;;16.60;47.60;;;;;;10177558;28;810;-75
2023/01/26 03:03:40;;;;;;;;;;;16.60;47.50;;;;;;10176872;28;1906;-75
2023/01/26 03:08:35;;;;;;;;;;;16.60;47.60;;;;;;10176990;28;1064;-75
2023/01/26 03:13:31;;;;;;;;;;;16.60;47.60;;;;;;10176164;28;967;-75
2023/01/26 03:28:54;;;;;;;;;;;16.60;47.60;;;;;;10176129;28;593;-75
2023/01/26 03:33:49;;;;;;;;;;;16.60;47.60;;;;;;10176961;28;814;-75
2023/01/26 03:38:45;;;;;;;;;;;16.60;47.60;;;;;;10176460;28;1293;-75
2023/01/26 03:59:36;;;;;;;;;;;16.60;47.60;;;;;;10169947;28;604;-75
2023/01/26 04:09:46;;;;;;;;;;;16.60;47.60;;;;;;10168827;28;668;-75
2023/01/26 04:25:09;;;;;;;;;;;16.60;47.60;;;;;;10168249;28;601;-75
2023/01/26 04:30:05;;;;;;;;;;;16.60;47.60;;;;;;10167941;28;886;-75
2023/01/26 04:35:00;;;;;;;;;;;16.60;47.50;;;;;;10168267;28;955;-75
2023/01/26 04:39:55;;;;;;;;;;;16.60;47.50;;;;;;10168108;28;1343;-75
2023/01/26 04:44:51;;;;;;;;;;;16.60;47.60;;;;;;10168507;28;1902;-75
2023/01/26 04:49:46;;;;;;;;;;;16.60;48.20;;;;;;10167874;28;949;-75
2023/01/26 04:54:41;;;;;;;;;;;16.60;47.60;;;;;;10168852;28;846;-75
2023/01/26 04:59:37;;;;;;;;;;;16.60;47.60;;;;;;10167458;28;868;-75
2023/01/26 05:04:32;;;;;;;;;;;16.60;47.60;;;;;;10167231;28;1911;-75
2023/01/26 05:09:28;;;;;;;;;;;16.60;47.50;;;;;;10165923;28;833;-75
2023/01/26 05:14:23;;;;;;;;;;;16.60;47.50;;;;;;10167022;28;853;-75
2023/01/26 05:19:19;;;;;;;;;;;16.60;47.50;;;;;;10167330;28;801;-75
2023/01/26 05:24:14;;;;;;;;;;;16.70;47.50;;;;;;10166352;28;1966;-75
2023/01/26 05:29:09;;;;;;;;;;;16.60;47.40;;;;;;10167041;28;838;-75
2023/01/26 05:34:05;;;;;;;;;;;16.70;47.50;;;;;;10166700;28;893;-75
2023/01/26 05:39:00;;;;;;;;;;;16.70;47.40;;;;;;10165934;28;1390;-75
2023/01/26 05:43:56;;;;;;;;;;;16.70;47.40;;;;;;10165652;28;1982;-74
2023/01/26 05:48:51;;;;;;;;;;;16.70;47.40;;;;;;10165708;28;892;-74
2023/01/26 05:53:46;;;;;;;;;;;16.70;47.40;;;;;;10165508;28;1047;-74
2023/01/26 05:58:42;;;;;;;;;;;16.70;47.40;;;;;;10165213;28;790;-74
2023/01/26 06:03:37;;;;;;;;;;;16.70;47.40;;;;;;10164998;28;1906;-74
2023/01/26 06:08:32;;;;;;;;;;;16.70;47.30;;;;;;10164613;28;964;-74
2023/01/26 06:13:28;;;;;;;;;;;16.70;47.40;;;;;;10165283;28;850;-74
2023/01/26 06:18:23;;;;;;;;;;;16.70;47.40;;;;;;10164820;28;930;-74
2023/01/26 06:23:18;;;;;;;;;;;16.70;47.30;;;;;;10164359;28;1915;-74
2023/01/26 06:28:14;;;;;;;;;;;16.70;47.40;;;;;;10164927;28;792;-74
2023/01/26 06:33:09;;;;;;;;;;;16.70;47.90;;;;;;10164803;28;835;-74
2023/01/26 06:38:05;;;;;;;;;;;16.70;47.40;;;;;;10164423;28;1257;-74
2023/01/26 06:43:00;;;;;;;;;;;16.70;47.40;;;;;;10164223;28;1910;-74
2023/01/26 06:47:55;;;;;;;;;;;16.70;47.40;;;;;;10163963;28;768;-73
2023/01/26 06:52:51;;;;;;;;;;;16.70;47.40;;;;;;10163862;28;870;-71
2023/01/26 06:57:46;;;;;;;;;;;16.70;47.40;;;;;;10163793;28;822;-71
2023/01/26 07:02:41;;;;;;;;;;;16.70;47.30;;;;;;10164212;28;1965;-72
2023/01/26 07:07:37;;;;;;;;;;;16.80;47.30;;;;;;10164427;28;814;-71
2023/01/26 07:12:32;;;;;;;;;;;16.70;47.40;;;;;;10162965;28;818;-71
2023/01/26 07:17:27;;;;;;;;;;;16.60;47.40;;;;;;10163491;28;825;-71
2023/01/26 07:22:23;;;;;;;;;;;16.60;47.60;;;;;;10163725;28;1964;-71
2023/01/26 07:27:18;;;;;;;;;;;16.60;47.50;;;;;;10163844;28;948;-71
2023/01/26 07:32:13;;;;;;;;;;;16.60;47.50;;;;;;10167701;28;952;-71
2023/01/26 07:37:09;;;;;;;;;;;16.60;47.40;;;;;;10170606;28;905;-74
2023/01/26 07:42:04;;;;;;;;;;;16.60;47.40;;;;;;10169373;28;1910;-71
2023/01/26 07:47:00;;;;;;;;;;;16.70;47.40;;;;;;10170186;28;826;-71
2023/01/26 07:51:55;;;;;;;;;;;16.70;47.40;;;;;;10170036;28;834;-74
2023/01/26 07:56:51;;;;;;;;;;;16.70;47.30;;;;;;10169985;28;878;-71
2023/01/26 08:01:46;;;;;;;;;;;16.70;47.30;;;;;;10169108;28;1961;-71
2023/01/26 08:06:42;;;;;;;;;;;16.90;47.30;;;;;;10169296;28;830;-70
2023/01/26 08:11:37;;;;;;;;;;;17.00;47.30;;;;;;10169899;28;810;-71
2023/01/26 08:16:32;;;;;;;;;;;17.00;47.40;;;;;;10169117;28;830;-72
2023/01/26 08:21:28;;;;;;;;;;;17.10;47.30;;;;;;10168271;28;1967;-71
2023/01/26 08:26:23;;;;;;;;;;;17.10;47.20;;;;;;10169320;28;758;-72
2023/01/26 08:31:19;;;;;;;;;;;17.10;47.10;;;;;;10168496;28;868;-72
2023/01/26 08:36:14;;;;;;;;;;;17.10;47.00;;;;;;10168439;28;781;-71
2023/01/26 08:41:09;;;;;;;;;;;17.20;47.10;;;;;;10168109;28;1964;-71
2023/01/26 08:46:05;;;;;;;;;;;17.20;47.20;;;;;;10167490;28;972;-71
2023/01/26 08:51:00;;;;;;;;;;;17.20;47.30;;;;;;10168470;28;905;-71
2023/01/26 08:55:55;;;;;;;;;;;17.30;47.30;;;;;;10168014;28;862;-70
2023/01/26 09:00:51;;;;;;;;;;;17.30;47.40;;;;;;10167448;28;1906;-70
2023/01/26 09:05:46;;;;;;;;;;;17.30;47.40;;;;;;10167860;28;896;-70
2023/01/26 09:10:44;;;;;;;;;;;17.30;47.40;;;;;;10166369;28;1115;-71
2023/01/26 09:15:39;;;;;;;;;;;17.30;47.40;;;;;;10167733;28;886;-70
2023/01/26 09:20:34;;;;;;;;;;;17.30;47.40;;;;;;10165458;28;1907;-70
2023/01/26 09:25:30;;;;;;;;;;;17.40;47.60;;;;;;10166326;28;854;-70
2023/01/26 09:30:25;;;;;;;;;;;17.30;47.70;;;;;;10166310;28;799;-70
2023/01/26 09:35:20;;;;;;;;;;;17.30;47.80;;;;;;10166730;28;946;-70
2023/01/26 09:40:16;;;;;;;;;;;17.20;47.80;;;;;;10165821;28;1906;-70
2023/01/26 09:45:11;;;;;;;;;;;17.30;47.90;;;;;;10165649;28;889;-68
2023/01/26 09:50:07;;;;;;;;;;;17.30;47.90;;;;;;10165200;28;862;-74
2023/01/26 09:55:02;;;;;;;;;;;17.20;48.00;;;;;;10165310;28;866;-74
2023/01/26 09:59:58;;;;;;;;;;;17.10;48.30;;;;;;10165811;28;920;-75
2023/01/26 10:04:53;;;;;;;;;;;17.00;48.10;;;;;;10164703;28;1915;-76
2023/01/26 10:09:48;;;;;;;;;;;17.00;48.00;;;;;;10164641;28;885;-75
2023/01/26 10:14:44;;;;;;;;;;;17.00;47.80;;;;;;10164604;28;810;-75
2023/01/26 10:19:39;;;;;;;;;;;17.00;47.80;;;;;;10164626;28;788;-75
2023/01/26 10:24:34;;;;;;;;;;;17.00;47.80;;;;;;10164808;28;1968;-75
2023/01/26 10:29:30;;;;;;;;;;;17.00;47.90;;;;;;10164927;28;976;-75
2023/01/26 10:34:25;;;;;;;;;;;17.00;47.80;;;;;;10163950;28;948;-74
2023/01/26 10:39:21;;;;;;;;;;;17.00;47.70;;;;;;10163082;28;1198;-75
2023/01/26 10:44:17;;;;;;;;;;;17.00;47.80;;;;;;10163459;28;1977;-75
2023/01/26 10:49:18;;;;;;;;;;;17.00;47.70;;;;;;10164165;28;879;-74
2023/01/26 10:54:14;;;;;;;;;;;17.00;47.60;;;;;;10163628;28;872;-75
2023/01/26 10:59:10;;;;;;;;;;;17.00;47.70;;;;;;10163431;28;819;-75
2023/01/26 11:04:06;;;;;;;;;;;17.00;47.90;;;;;;10164963;28;1910;-75
2023/01/26 11:09:01;;;;;;;;;;;17.00;47.80;;;;;;10171477;28;799;-75
2023/01/26 11:13:56;;;;;;;;;;;17.00;47.90;;;;;;10171186;28;826;-74
2023/01/26 11:18:52;;;;;;;;;;;17.10;47.80;;;;;;10171577;28;1003;-73
2023/01/26 11:23:47;;;;;;;;;;;17.10;47.90;;;;;;10170355;28;1914;-74
2023/01/26 11:28:43;;;;;;;;;;;17.10;48.00;;;;;;10170562;28;896;-74
2023/01/26 11:33:38;;;;;;;;;;;17.00;47.80;;;;;;10170422;28;830;-74
2023/01/26 11:38:33;;;;;;;;;;;17.10;48.00;;;;;;10171042;28;1261;-74
2023/01/26 11:43:29;;;;;;;;;;;17.10;47.90;;;;;;10170539;28;1922;-74
2023/01/26 11:48:24;;;;;;;;;;;17.10;47.90;;;;;;10169810;28;853;-75
2023/01/26 11:53:20;;;;;;;;;;;17.10;47.80;;;;;;10169115;28;1036;-81
2023/01/26 11:58:15;;;;;;;;;;;17.00;47.90;;;;;;10170183;28;904;-81
2023/01/26 12:03:10;;;;;;;;;;;17.10;47.90;;;;;;10168743;28;1967;-82
2023/01/26 12:08:06;;;;;;;;;;;17.10;48.00;;;;;;10170145;28;1025;-78
2023/01/26 12:13:01;;;;;;;;;;;17.10;48.00;;;;;;10168565;28;850;-84
2023/01/26 12:17:56;;;;;;;;;;;17.10;48.00;;;;;;10168155;28;753;-77
2023/01/26 12:22:52;;;;;;;;;;;17.10;48.00;;;;;;10168588;28;1969;-84
2023/01/26 12:27:47;;;;;;;;;;;17.10;47.90;;;;;;10169070;28;823;-83
2023/01/26 12:32:43;;;;;;;;;;;17.10;48.00;;;;;;10168469;28;826;-84
2023/01/26 12:37:38;;;;;;;;;;;17.10;48.10;;;;;;10168422;28;1168;-83
2023/01/26 12:42:33;;;;;;;;;;;17.00;48.10;;;;;;10168174;28;1973;-84
2023/01/26 12:47:29;;;;;;;;;;;17.10;48.10;;;;;;10167785;28;846;-83
2023/01/26 12:52:24;;;;;;;;;;;17.00;48.00;;;;;;10167687;28;771;-84
2023/01/26 12:57:19;;;;;;;;;;;17.10;48.00;;;;;;10166938;28;847;-84
2023/01/26 13:02:15;;;;;;;;;;;17.10;48.10;;;;;;10167251;28;1911;-84
2023/01/26 13:07:10;;;;;;;;;;;17.10;48.10;;;;;;10167033;28;830;-83
2023/01/26 13:12:05;;;;;;;;;;;17.10;48.00;;;;;;10166551;28;953;-84
2023/01/26 13:17:01;;;;;;;;;;;17.10;48.00;;;;;;10166055;28;1185;-74
2023/01/26 13:21:56;;;;;;;;;;;17.10;48.00;;;;;;10165298;28;1971;-74
2023/01/26 13:26:51;;;;;;;;;;;17.10;48.00;;;;;;10166283;28;818;-74
2023/01/26 13:31:47;;;;;;;;;;;17.00;48.00;;;;;;10167345;28;1286;-74
2023/01/26 13:36:42;;;;;;;;;;;17.10;48.10;;;;;;10165461;28;906;-74
2023/01/26 13:41:37;;;;;;;;;;;17.10;48.00;;;;;;10165712;28;1993;-74
2023/01/26 13:46:33;;;;;;;;;;;17.10;48.10;;;;;;10165435;28;853;-74
2023/01/26 13:51:28;;;;;;;;;;;17.10;48.10;;;;;;10165961;28;956;-74
2023/01/26 13:56:24;;;;;;;;;;;17.10;48.20;;;;;;10165227;28;755;-74
2023/01/26 14:01:19;;;;;;;;;;;17.10;48.10;;;;;;10164938;28;1981;-79
2023/01/26 14:06:14;;;;;;;;;;;17.10;48.20;;;;;;10164790;28;809;-75
2023/01/26 14:11:10;;;;;;;;;;;17.10;48.20;;;;;;10164664;28;853;-74
2023/01/26 14:16:05;;;;;;;;;;;17.10;48.30;;;;;;10164552;28;881;-75
2023/01/26 14:21:00;;;;;;;;;;;17.10;48.20;;;;;;10164958;28;1902;-74
2023/01/26 14:25:56;;;;;;;;;;;17.10;48.30;;;;;;10164236;28;774;-74
2023/01/26 14:30:51;;;;;;;;;;;17.10;48.40;;;;;;10164687;28;912;-74
2023/01/26 14:35:47;;;;;;;;;;;17.10;48.50;;;;;;10163911;28;771;-74
2023/01/26 14:40:42;;;;;;;;;;;17.00;48.30;;;;;;10162954;28;1914;-74
2023/01/26 14:45:37;;;;;;;;;;;17.00;48.60;;;;;;10163786;28;841;-74
2023/01/26 14:50:33;;;;;;;;;;;17.00;48.80;;;;;;10163186;28;1199;-74
2023/01/26 14:55:28;;;;;;;;;;;17.00;48.70;;;;;;10163537;28;862;-74
2023/01/26 15:00:23;;;;;;;;;;;17.00;48.60;;;;;;10163281;28;1964;-74
2023/01/26 15:05:19;;;;;;;;;;;17.00;48.60;;;;;;10163406;28;878;-83
2023/01/26 15:10:15;;;;;;;;;;;17.00;48.50;;;;;;10149953;28;1632;-83
2023/01/26 15:15:10;;;;;;;;;;;17.00;48.60;;;;;;10124697;28;929;-79
2023/01/26 15:20:05;;;;;;;;;;;17.00;48.50;;;;;;10124149;28;858;-83
2023/01/26 15:25:01;;;;;;;;;;;17.00;48.50;;;;;;10123478;28;1898;-82
2023/01/26 15:29:56;;;;;;;;;;;17.00;48.60;;;;;;10123482;28;893;-82
2023/01/26 15:34:51;;;;;;;;;;;17.10;48.70;;;;;;10124071;28;900;-82
2023/01/26 15:39:47;;;;;;;;;;;17.10;48.60;;;;;;10123617;28;1451;-82
2023/01/26 15:44:42;;;;;;;;;;;17.10;48.50;;;;;;10123922;28;1906;-83
2023/01/26 15:49:37;;;;;;;;;;;17.10;48.50;;;;;;10123153;28;779;-82
2023/01/26 15:54:33;;;;;;;;;;;17.00;48.40;;;;;;10129345;28;911;-83
2023/01/26 15:59:28;;;;;;;;;;;17.10;48.50;;;;;;10129986;28;772;-82
2023/01/26 16:04:24;;;;;;;;;;;17.10;48.50;;;;;;10130125;28;1966;-73
2023/01/26 16:09:19;;;;;;;;;;;17.00;48.30;;;;;;10149977;28;787;-73
2023/01/26 16:14:15;;;;;;;;;;;17.30;48.30;;;;;;10169616;28;834;-73
2023/01/26 16:19:10;;;;;;;;;;;17.50;48.10;;;;;;10169612;28;974;-74
2023/01/26 16:24:05;;;;;;;;;;;17.40;48.20;;;;;;10168877;28;1867;-72
2023/01/26 16:29:01;;;;;;;;;;;17.40;48.40;;;;;;10168959;28;927;-73
2023/01/26 16:33:56;;;;;;;;;;;17.40;48.30;;;;;;10169319;28;780;-74
2023/01/26 16:38:51;;;;;;;;;;;17.40;48.40;;;;;;10168532;28;1212;-73
2023/01/26 16:43:47;;;;;;;;;;;17.40;48.50;;;;;;10168177;28;1910;-73
2023/01/26 16:48:42;;;;;;;;;;;17.40;48.50;;;;;;10168603;28;875;-74
2023/01/26 16:53:38;;;;;;;;;;;17.50;48.50;;;;;;10168426;28;779;-74
2023/01/26 16:58:33;;;;;;;;;;;17.40;48.40;;;;;;10168297;28;856;-74
2023/01/26 17:03:28;;;;;;;;;;;17.40;48.40;;;;;;10166653;28;1986;-73
2023/01/26 17:08:24;;;;;;;;;;;17.50;48.40;;;;;;10168055;28;869;-73
2023/01/26 17:13:19;;;;;;;;;;;17.50;48.40;;;;;;10167661;28;799;-73
2023/01/26 17:18:14;;;;;;;;;;;17.50;48.50;;;;;;10166932;28;767;-73
2023/01/26 17:23:10;;;;;;;;;;;17.50;48.30;;;;;;10166621;28;1965;-75
2023/01/26 17:28:05;;;;;;;;;;;17.50;48.30;;;;;;10166101;28;1012;-73
2023/01/26 17:33:00;;;;;;;;;;;17.50;48.30;;;;;;10166344;28;858;-72
2023/01/26 17:37:56;;;;;;;;;;;17.40;48.20;;;;;;10166533;28;1125;-72
2023/01/26 17:42:51;;;;;;;;;;;17.40;48.00;;;;;;10166547;28;1939;-71
2023/01/26 17:47:47;;;;;;;;;;;17.40;47.90;;;;;;10166375;28;876;-73
2023/01/26 17:52:42;;;;;;;;;;;17.40;48.00;;;;;;10165600;28;873;-73
2023/01/26 17:57:37;;;;;;;;;;;17.50;48.20;;;;;;10165560;28;787;-74
2023/01/26 18:02:33;;;;;;;;;;;17.50;48.30;;;;;;10164652;28;1969;-73
2023/01/26 18:07:28;;;;;;;;;;;17.50;48.30;;;;;;10165563;28;985;-74
2023/01/26 18:12:24;;;;;;;;;;;17.40;48.20;;;;;;10165538;28;923;-73
2023/01/26 18:17:19;;;;;;;;;;;17.40;48.20;;;;;;10164278;28;931;-73
2023/01/26 18:22:14;;;;;;;;;;;17.50;48.20;;;;;;10165164;28;1911;-74
2023/01/26 18:27:10;;;;;;;;;;;17.50;48.20;;;;;;10164498;28;944;-73
2023/01/26 18:32:06;;;;;;;;;;;17.50;48.20;;;;;;10164351;28;978;-73
2023/01/26 18:37:01;;;;;;;;;;;17.40;48.30;;;;;;10164383;28;803;-73
2023/01/26 18:41:56;;;;;;;;;;;17.40;48.20;;;;;;10164107;28;1906;-73
2023/01/26 18:46:52;;;;;;;;;;;17.40;48.30;;;;;;10164042;28;877;-73
2023/01/26 18:51:47;;;;;;;;;;;17.50;48.30;;;;;;10163915;28;878;-73
2023/01/26 18:56:43;;;;;;;;;;;17.50;48.40;;;;;;10164020;28;886;-73
2023/01/26 19:01:38;;;;;;;;;;;17.50;48.30;;;;;;10163696;28;1965;-73
2023/01/26 19:06:35;;;;;;;;;;;17.50;48.40;;;;;;10163712;28;779;-73
2023/01/26 19:11:30;;;;;;;;;;;17.50;48.40;;;;;;10163894;28;784;-73
2023/01/26 19:16:25;;;;;;;;;;;17.50;48.40;;;;;;10163433;28;950;-73
2023/01/26 19:21:23;;;;;;;;;;;17.50;48.30;;;;;;10163379;28;1906;-74
2023/01/26 19:26:18;;;;;;;;;;;17.50;48.30;;;;;;10165627;28;893;-73
2023/01/26 19:31:17;;;;;;;;;;;17.60;48.30;;;;;;10171595;28;820;-73
2023/01/26 19:36:13;;;;;;;;;;;17.50;48.40;;;;;;10170748;28;883;-73
2023/01/26 19:41:08;;;;;;;;;;;17.50;48.40;;;;;;10171175;28;1977;-73
2023/01/26 19:46:04;;;;;;;;;;;17.50;48.30;;;;;;10170439;28;958;-73
2023/01/26 19:51:00;;;;;;;;;;;17.50;48.40;;;;;;10170286;28;849;-73
2023/01/26 19:55:55;;;;;;;;;;;17.50;48.40;;;;;;10170691;28;1137;-72
2023/01/26 20:00:50;;;;;;;;;;;17.50;48.40;;;;;;10169818;28;1907;-72
2023/01/26 20:05:46;;;;;;;;;;;17.50;48.20;;;;;;10170369;28;815;-73
2023/01/26 20:10:41;;;;;;;;;;;17.50;48.30;;;;;;10169560;28;795;-73
2023/01/26 20:15:37;;;;;;;;;;;17.60;48.20;;;;;;10169365;28;826;-73
2023/01/26 20:20:32;;;;;;;;;;;17.50;48.10;;;;;;10169225;28;944;-72
2023/01/26 20:25:27;;;;;;;;;;;17.50;48.20;;;;;;10169454;28;1956;-72
2023/01/26 20:30:23;;;;;;;;;;;17.50;48.20;;;;;;10168791;28;883;-73
2023/01/26 20:35:18;;;;;;;;;;;17.50;48.20;;;;;;10168661;28;885;-72
2023/01/26 20:40:14;;;;;;;;;;;17.50;48.00;;;;;;10168127;28;1267;-72
2023/01/26 20:45:09;;;;;;;;;;;17.50;48.10;;;;;;10168103;28;1902;-72
2023/01/26 20:50:04;;;;;;;;;;;17.50;48.10;;;;;;10168065;28;871;-76
2023/01/26 20:55:01;;;;;;;;;;;17.50;48.10;;;;;;10167898;28;815;-79
2023/01/26 20:59:56;;;;;;;;;;;17.40;48.20;;;;;;10167988;28;845;-77
2023/01/26 21:04:53;;;;;;;;;;;17.40;48.30;;;;;;10167447;28;1894;-76
2023/01/26 21:09:48;;;;;;;;;;;17.40;48.30;;;;;;10167103;28;939;-73
2023/01/26 21:14:43;;;;;;;;;;;17.40;48.30;;;;;;10168092;28;949;-72
2023/01/26 21:19:39;;;;;;;;;;;17.40;48.40;;;;;;10167486;28;941;-72
2023/01/26 21:24:34;;;;;;;;;;;17.40;48.50;;;;;;10167261;28;1890;-72
2023/01/26 21:29:30;;;;;;;;;;;17.40;48.40;;;;;;10166578;28;775;-73
2023/01/26 21:34:25;;;;;;;;;;;17.40;48.50;;;;;;10166379;28;764;-73
2023/01/26 21:39:21;;;;;;;;;;;17.40;48.50;;;;;;10166832;28;1327;-72
2023/01/26 21:44:16;;;;;;;;;;;17.40;48.50;;;;;;10165925;28;1910;-72
2023/01/26 21:49:11;;;;;;;;;;;17.30;48.50;;;;;;10165563;28;810;-72
2023/01/26 21:54:07;;;;;;;;;;;17.30;48.60;;;;;;10166221;28;861;-72
2023/01/26 21:59:06;;;;;;;;;;;17.30;48.50;;;;;;10165455;28;1105;-72
2023/01/26 22:04:01;;;;;;;;;;;17.30;48.60;;;;;;10166201;28;1927;-72
2023/01/26 22:09:00;;;;;;;;;;;17.20;48.60;;;;;;10164552;28;826;-72
2023/01/26 22:13:55;;;;;;;;;;;17.20;48.60;;;;;;10164983;28;904;-72
2023/01/26 22:18:50;;;;;;;;;;;17.20;48.60;;;;;;10165458;28;853;-72
2023/01/26 22:23:46;;;;;;;;;;;17.20;48.70;;;;;;10164617;28;1902;-72
2023/01/26 22:28:48;;;;;;;;;;;17.20;48.70;;;;;;10164717;28;859;-72
2023/01/26 22:33:44;;;;;;;;;;;17.10;48.70;;;;;;10164985;28;835;-72
2023/01/26 22:38:39;;;;;;;;;;;17.20;48.70;;;;;;10163830;28;1241;-73
2023/01/26 22:43:35;;;;;;;;;;;17.10;48.60;;;;;;10164712;28;1984;-73
2023/01/26 22:48:30;;;;;;;;;;;17.20;48.70;;;;;;10164022;28;883;-73
2023/01/26 22:53:25;;;;;;;;;;;17.20;48.70;;;;;;10163956;28;822;-73
2023/01/26 22:58:21;;;;;;;;;;;17.20;48.60;;;;;;10163863;28;787;-73
2023/01/26 23:03:16;;;;;;;;;;;17.20;48.50;;;;;;10170698;28;1960;-73
2023/01/26 23:08:12;;;;;;;;;;;17.20;48.50;;;;;;10172472;28;760;-73
2023/01/26 23:13:07;;;;;;;;;;;17.20;48.40;;;;;;10172573;28;826;-73
2023/01/26 23:18:02;;;;;;;;;;;17.20;48.50;;;;;;10171686;28;875;-73
2023/01/26 23:22:58;;;;;;;;;;;17.30;48.50;;;;;;10170748;28;1898;-73
2023/01/26 23:27:53;;;;;;;;;;;17.30;48.30;;;;;;10170618;28;919;-73
2023/01/26 23:32:49;;;;;;;;;;;17.30;48.40;;;;;;10171056;28;834;-73
2023/01/26 23:37:44;;;;;;;;;;;17.30;48.50;;;;;;10171254;28;1200;-73
2023/01/26 23:42:39;;;;;;;;;;;17.30;48.50;;;;;;10170074;28;1910;-73
2023/01/26 23:47:35;;;;;;;;;;;17.30;48.50;;;;;;10170441;28;950;-73
2023/01/26 23:52:30;;;;;;;;;;;17.20;48.50;;;;;;10170317;28;791;-73
2023/01/26 23:57:25;;;;;;;;;;;17.20;48.60;;;;;;10170110;28;763;-73
